createdAt,value
2023-04-03T00:00:51.106Z,0.58
2023-04-03T00:01:51.174Z,0.58
2023-04-03T00:02:51.316Z,0.58
2023-04-03T00:03:51.363Z,0.58
2023-04-03T00:04:51.317Z,0.58
2023-04-03T00:05:51.367Z,0.57
2023-04-03T00:06:51.419Z,0.59
2023-04-03T00:07:51.471Z,0.58
2023-04-03T00:08:51.547Z,0.58
2023-04-03T00:09:51.582Z,0.59
2023-04-03T00:10:51.649Z,0.58
2023-04-03T00:11:51.695Z,0.58
2023-04-03T00:12:52.757Z,0.57
2023-04-03T00:13:51.813Z,0.58
2023-04-03T00:14:51.867Z,0.59
2023-04-03T00:15:51.929Z,0.58
2023-04-03T00:16:52.033Z,0.57
2023-04-03T00:17:52.026Z,0.58
2023-04-03T00:18:52.099Z,0.58
2023-04-03T00:19:52.137Z,0.58
2023-04-03T00:20:52.193Z,0.58
2023-04-03T00:21:52.248Z,0.58
2023-04-03T00:22:52.296Z,0.58
2023-04-03T00:23:52.370Z,0.57
2023-04-03T00:24:52.401Z,0.58
2023-04-03T00:25:52.458Z,0.58
2023-04-03T00:26:52.519Z,0.59
2023-04-03T00:27:52.577Z,0.57
2023-04-03T00:28:52.696Z,0.58
2023-04-03T00:29:52.709Z,0.58
2023-04-03T00:30:52.788Z,0.57
2023-04-03T00:31:52.787Z,0.58
2023-04-03T00:32:52.943Z,0.58
2023-04-03T00:33:52.881Z,0.58
2023-04-03T00:34:52.936Z,0.57
2023-04-03T00:35:53.071Z,0.57
2023-04-03T00:36:53.142Z,0.57
2023-04-03T00:37:53.109Z,0.58
2023-04-03T00:38:53.165Z,0.58
2023-04-03T00:39:53.225Z,0.58
2023-04-03T00:40:53.277Z,0.56
2023-04-03T00:41:53.336Z,0.57
2023-04-03T00:42:53.389Z,0.57
2023-04-03T00:43:53.432Z,0.57
2023-04-03T00:44:53.486Z,0.56
2023-04-03T00:45:53.598Z,0.57
2023-04-03T00:46:53.596Z,0.56
2023-04-03T00:47:53.690Z,0.57
2023-04-03T00:48:53.710Z,0.57
2023-04-03T00:49:53.749Z,0.56
2023-04-03T00:50:53.799Z,0.57
2023-04-03T00:51:53.840Z,0.57
2023-04-03T00:52:53.913Z,0.57
2023-04-03T00:53:53.953Z,0.57
2023-04-03T00:54:53.992Z,0.56
2023-04-03T00:55:54.051Z,0.57
2023-04-03T00:56:54.121Z,0.59
2023-04-03T00:57:54.149Z,0.56
2023-04-03T00:58:54.205Z,0.56
2023-04-03T00:59:54.244Z,0.57
2023-04-03T01:00:54.301Z,0.56
2023-04-03T01:01:54.376Z,0.57
2023-04-03T01:02:54.431Z,0.57
2023-04-03T01:03:54.470Z,0.57
2023-04-03T01:04:54.489Z,0.56
2023-04-03T01:05:54.542Z,0.56
2023-04-03T01:06:54.581Z,0.57
2023-04-03T01:07:54.646Z,0.55
2023-04-03T01:08:54.697Z,0.56
2023-04-03T01:09:54.719Z,0.57
2023-04-03T01:10:54.789Z,0.56
2023-04-03T01:11:54.827Z,0.56
2023-04-03T01:12:54.873Z,0.57
2023-04-03T01:13:54.933Z,0.55
2023-04-03T01:14:54.964Z,0.56
2023-04-03T01:15:55.077Z,0.56
2023-04-03T01:16:55.046Z,0.55
2023-04-03T01:17:55.185Z,0.57
2023-04-03T01:18:55.129Z,0.57
2023-04-03T01:19:55.147Z,0.57
2023-04-03T01:20:55.203Z,0.57
2023-04-03T01:21:55.256Z,0.57
2023-04-03T01:22:55.286Z,0.56
2023-04-03T01:23:55.325Z,0.55
2023-04-03T01:24:55.380Z,0.56
2023-04-03T01:25:55.432Z,0.56
2023-04-03T01:26:55.477Z,0.56
2023-04-03T01:27:55.512Z,0.57
2023-04-03T01:28:55.556Z,0.57
2023-04-03T01:29:55.609Z,0.56
2023-04-03T01:30:55.648Z,0.56
2023-04-03T01:31:55.736Z,0.56
2023-04-03T01:32:55.769Z,0.56
2023-04-03T01:33:55.780Z,0.55
2023-04-03T01:34:55.814Z,0.57
2023-04-03T01:35:55.911Z,0.56
2023-04-03T01:36:55.909Z,0.57
2023-04-03T01:37:55.941Z,0.56
2023-04-03T01:38:55.995Z,0.56
2023-04-03T01:39:56.024Z,0.56
2023-04-03T01:40:56.074Z,0.56
2023-04-03T01:41:56.125Z,0.56
2023-04-03T01:42:56.155Z,0.56
2023-04-03T01:43:56.194Z,0.56
2023-04-03T01:44:56.248Z,0.55
2023-04-03T01:45:56.324Z,0.56
2023-04-03T01:46:56.336Z,0.57
2023-04-03T01:47:56.370Z,0.56
2023-04-03T01:48:57.279Z,0.57
2023-04-03T01:49:56.459Z,0.56
2023-04-03T01:50:57.275Z,0.55
2023-04-03T01:51:56.544Z,0.55
2023-04-03T01:52:56.571Z,0.56
2023-04-03T01:53:56.611Z,0.55
2023-04-03T01:54:56.653Z,0.56
2023-04-03T01:55:56.705Z,0.55
2023-04-03T01:56:56.757Z,0.54
2023-04-03T01:57:56.784Z,0.56
2023-04-03T01:58:56.829Z,0.56
2023-04-03T01:59:56.859Z,0.57
2023-04-03T02:00:56.932Z,0.56
2023-04-03T02:01:56.946Z,0.56
2023-04-03T02:02:57.018Z,0.54
2023-04-03T02:03:57.060Z,0.55
2023-04-03T02:04:57.082Z,0.55
2023-04-03T02:05:57.122Z,0.55
2023-04-03T02:06:57.195Z,0.54
2023-04-03T02:07:57.200Z,0.55
2023-04-03T02:08:57.245Z,0.55
2023-04-03T02:09:57.277Z,0.55
2023-04-03T02:10:57.309Z,0.55
2023-04-03T02:11:57.354Z,0.55
2023-04-03T02:12:57.379Z,0.55
2023-04-03T02:13:57.418Z,0.54
2023-04-03T02:14:57.468Z,0.54
2023-04-03T02:15:57.493Z,0.56
2023-04-03T02:16:57.702Z,0.55
2023-04-03T02:17:57.613Z,0.55
2023-04-03T02:18:57.628Z,0.55
2023-04-03T02:19:57.674Z,0.54
2023-04-03T02:20:57.692Z,0.56
2023-04-03T02:21:57.740Z,0.55
2023-04-03T02:22:57.833Z,0.54
2023-04-03T02:23:57.805Z,0.55
2023-04-03T02:24:57.851Z,0.55
2023-04-03T02:25:57.877Z,0.54
2023-04-03T02:26:57.917Z,0.54
2023-04-03T02:27:57.943Z,0.54
2023-04-03T02:28:58.780Z,0.55
2023-04-03T02:29:58.029Z,0.56
2023-04-03T02:30:58.092Z,0.55
2023-04-03T02:31:58.094Z,0.55
2023-04-03T02:32:58.140Z,0.56
2023-04-03T02:33:58.168Z,0.54
2023-04-03T02:34:58.198Z,0.55
2023-04-03T02:35:58.284Z,0.56
2023-04-03T02:36:58.280Z,0.55
2023-04-03T02:37:58.315Z,0.54
2023-04-03T02:38:58.358Z,0.55
2023-04-03T02:39:58.382Z,0.54
2023-04-03T02:40:58.426Z,0.55
2023-04-03T02:41:58.460Z,0.54
2023-04-03T02:42:58.499Z,0.54
2023-04-03T02:43:58.532Z,0.54
2023-04-03T02:45:00.468Z,0.54
2023-04-03T02:45:58.639Z,0.55
2023-04-03T02:46:58.641Z,0.55
2023-04-03T02:47:58.709Z,0.54
2023-04-03T02:48:58.703Z,0.55
2023-04-03T02:49:58.733Z,0.55
2023-04-03T02:50:58.775Z,0.55
2023-04-03T02:51:58.814Z,0.54
2023-04-03T02:52:58.907Z,0.54
2023-04-03T02:53:59.803Z,0.55
2023-04-03T02:54:58.926Z,0.54
2023-04-03T02:55:58.963Z,0.55
2023-04-03T02:56:59.040Z,0.56
2023-04-03T02:57:59.018Z,0.55
2023-04-03T02:58:59.059Z,0.54
2023-04-03T02:59:59.299Z,0.55
2023-04-03T03:00:59.106Z,0.55
2023-04-03T03:01:59.214Z,0.53
2023-04-03T03:02:59.212Z,0.55
2023-04-03T03:03:59.214Z,0.54
2023-04-03T03:04:59.238Z,0.55
2023-04-03T03:05:59.269Z,0.55
2023-04-03T03:06:59.308Z,0.54
2023-04-03T03:07:59.346Z,0.55
2023-04-03T03:08:59.364Z,0.55
2023-04-03T03:09:59.399Z,0.55
2023-04-03T03:10:59.429Z,0.54
2023-04-03T03:11:59.460Z,0.54
2023-04-03T03:12:59.495Z,0.55
2023-04-03T03:13:59.524Z,0.54
2023-04-03T03:14:59.560Z,0.55
2023-04-03T03:15:59.661Z,0.54
2023-04-03T03:16:59.623Z,0.54
2023-04-03T03:17:59.669Z,0.55
2023-04-03T03:18:59.681Z,0.54
2023-04-03T03:19:59.722Z,0.54
2023-04-03T03:20:59.752Z,0.54
2023-04-03T03:22:00.303Z,0.54
2023-04-03T03:22:59.818Z,0.54
2023-04-03T03:23:59.864Z,0.54
2023-04-03T03:25:00.803Z,0.54
2023-04-03T03:25:59.925Z,0.55
2023-04-03T03:26:59.971Z,0.55
2023-04-03T03:27:59.979Z,0.54
2023-04-03T03:29:00.012Z,0.53
2023-04-03T03:30:00.046Z,0.53
2023-04-03T03:31:00.096Z,0.53
2023-04-03T03:32:00.124Z,0.53
2023-04-03T03:33:00.212Z,0.54
2023-04-03T03:34:00.169Z,0.53
2023-04-03T03:35:00.208Z,0.54
2023-04-03T03:36:00.261Z,0.54
2023-04-03T03:37:00.279Z,0.54
2023-04-03T03:38:00.316Z,0.54
2023-04-03T03:39:00.343Z,0.54
2023-04-03T03:40:00.371Z,0.53
2023-04-03T03:41:00.400Z,0.53
2023-04-03T03:42:00.432Z,0.54
2023-04-03T03:43:00.460Z,0.54
2023-04-03T03:44:00.499Z,0.54
2023-04-03T03:45:00.528Z,0.54
2023-04-03T03:46:00.563Z,0.53
2023-04-03T03:47:00.618Z,0.55
2023-04-03T03:48:00.694Z,0.53
2023-04-03T03:49:00.644Z,0.54
2023-04-03T03:50:00.674Z,0.53
2023-04-03T03:51:00.701Z,0.54
2023-04-03T03:52:01.311Z,0.54
2023-04-03T03:53:00.760Z,0.53
2023-04-03T03:54:00.798Z,0.53
2023-04-03T03:55:00.821Z,0.53
2023-04-03T03:56:00.853Z,0.53
2023-04-03T03:57:00.940Z,0.53
2023-04-03T03:58:00.930Z,0.54
2023-04-03T03:59:00.962Z,0.54
2023-04-03T04:00:01.168Z,0.52
2023-04-03T04:01:01.027Z,0.54
2023-04-03T04:02:01.153Z,0.53
2023-04-03T04:03:01.113Z,0.53
2023-04-03T04:04:01.924Z,0.53
2023-04-03T04:05:01.152Z,0.53
2023-04-03T04:06:01.188Z,0.54
2023-04-03T04:07:01.218Z,0.54
2023-04-03T04:08:01.232Z,0.52
2023-04-03T04:09:01.263Z,0.53
2023-04-03T04:10:01.286Z,0.53
2023-04-03T04:11:01.343Z,0.54
2023-04-03T04:12:01.354Z,0.53
2023-04-03T04:13:01.385Z,0.52
2023-04-03T04:14:01.409Z,0.54
2023-04-03T04:15:01.464Z,0.54
2023-04-03T04:16:01.476Z,0.53
2023-04-03T04:17:01.536Z,0.52
2023-04-03T04:18:01.576Z,0.53
2023-04-03T04:19:01.556Z,0.52
2023-04-03T04:20:01.584Z,0.54
2023-04-03T04:21:01.609Z,0.54
2023-04-03T04:22:01.644Z,0.55
2023-04-03T04:23:01.671Z,0.53
2023-04-03T04:24:01.696Z,0.52
2023-04-03T04:25:01.733Z,0.52
2023-04-03T04:26:01.753Z,0.53
2023-04-03T04:27:01.777Z,0.52
2023-04-03T04:28:01.807Z,0.52
2023-04-03T04:29:01.839Z,0.53
2023-04-03T04:30:01.884Z,0.53
2023-04-03T04:31:02.350Z,0.52
2023-04-03T04:32:01.925Z,0.52
2023-04-03T04:33:01.989Z,0.52
2023-04-03T04:34:01.958Z,0.53
2023-04-03T04:35:02.026Z,0.53
2023-04-03T04:36:02.091Z,0.52
2023-04-03T04:37:02.165Z,0.53
2023-04-03T04:38:02.057Z,0.53
2023-04-03T04:39:02.095Z,0.53
2023-04-03T04:40:02.120Z,0.53
2023-04-03T04:41:02.169Z,0.53
2023-04-03T04:42:02.187Z,0.54
2023-04-03T04:43:02.219Z,0.53
2023-04-03T04:44:02.239Z,0.52
2023-04-03T04:45:02.257Z,0.53
2023-04-03T04:46:02.332Z,0.52
2023-04-03T04:47:02.315Z,0.52
2023-04-03T04:48:02.855Z,0.52
2023-04-03T04:49:02.371Z,0.52
2023-04-03T04:50:02.391Z,0.52
2023-04-03T04:51:02.429Z,0.52
2023-04-03T04:52:02.439Z,0.53
2023-04-03T04:53:02.828Z,0.52
2023-04-03T04:54:02.497Z,0.52
2023-04-03T04:55:02.575Z,0.52
2023-04-03T04:56:02.557Z,0.53
2023-04-03T04:57:02.628Z,0.53
2023-04-03T04:58:02.638Z,0.52
2023-04-03T04:59:02.645Z,0.52
2023-04-03T05:00:02.665Z,0.52
2023-04-03T05:01:02.690Z,0.52
2023-04-03T05:02:02.746Z,0.53
2023-04-03T05:03:02.775Z,0.52
2023-04-03T05:04:02.764Z,0.53
2023-04-03T05:05:05.012Z,0.53
2023-04-03T05:06:02.934Z,0.52
2023-04-03T05:07:02.967Z,0.52
2023-04-03T05:08:02.993Z,0.52
2023-04-03T05:09:03.011Z,0.51
2023-04-03T05:10:03.054Z,0.52
2023-04-03T05:11:03.069Z,0.52
2023-04-03T05:12:03.098Z,0.51
2023-04-03T05:13:03.122Z,0.51
2023-04-03T05:14:03.149Z,0.51
2023-04-03T05:15:03.177Z,0.51
2023-04-03T05:16:03.245Z,0.52
2023-04-03T05:17:03.243Z,0.52
2023-04-03T05:18:03.305Z,0.53
2023-04-03T05:19:03.292Z,0.52
2023-04-03T05:20:03.336Z,0.52
2023-04-03T05:21:03.373Z,0.52
2023-04-03T05:22:03.385Z,0.51
2023-04-03T05:23:03.404Z,0.52
2023-04-03T05:24:03.458Z,0.52
2023-04-03T05:25:03.549Z,0.52
2023-04-03T05:26:03.491Z,0.52
2023-04-03T05:27:03.517Z,0.52
2023-04-03T05:28:03.541Z,0.52
2023-04-03T05:29:03.572Z,0.51
2023-04-03T05:30:03.610Z,0.51
2023-04-03T05:31:03.857Z,0.52
2023-04-03T05:32:03.660Z,0.52
2023-04-03T05:33:03.722Z,0.52
2023-04-03T05:34:03.691Z,0.51
2023-04-03T05:35:03.718Z,0.52
2023-04-03T05:36:03.790Z,0.51
2023-04-03T05:37:03.769Z,0.51
2023-04-03T05:38:03.791Z,0.52
2023-04-03T05:39:03.812Z,0.52
2023-04-03T05:40:03.833Z,0.51
2023-04-03T05:41:03.871Z,0.51
2023-04-03T05:42:03.893Z,0.51
2023-04-03T05:43:03.916Z,0.53
2023-04-03T05:44:03.964Z,0.51
2023-04-03T05:45:03.965Z,0.51
2023-04-03T05:46:04.032Z,0.50
2023-04-03T05:47:03.996Z,0.51
2023-04-03T05:48:04.053Z,0.52
2023-04-03T05:49:04.046Z,0.50
2023-04-03T05:50:04.059Z,0.52
2023-04-03T05:51:04.087Z,0.52
2023-04-03T05:52:04.096Z,0.51
2023-04-03T05:53:04.131Z,0.52
2023-04-03T05:54:04.137Z,0.51
2023-04-03T05:55:04.142Z,0.51
2023-04-03T05:56:04.205Z,0.52
2023-04-03T05:57:04.205Z,0.51
2023-04-03T05:58:04.872Z,0.52
2023-04-03T05:59:04.230Z,0.51
2023-04-03T06:00:04.264Z,0.51
2023-04-03T06:01:04.268Z,0.52
2023-04-03T06:02:04.290Z,0.52
2023-04-03T06:03:04.472Z,0.50
2023-04-03T06:04:04.546Z,0.52
2023-04-03T06:05:04.384Z,0.51
2023-04-03T06:06:04.424Z,0.51
2023-04-03T06:07:04.389Z,0.51
2023-04-03T06:08:04.414Z,0.51
2023-04-03T06:09:04.455Z,0.52
2023-04-03T06:10:04.454Z,0.50
2023-04-03T06:11:04.502Z,0.51
2023-04-03T06:12:04.486Z,0.53
2023-04-03T06:13:04.514Z,0.51
2023-04-03T06:14:04.540Z,0.51
2023-04-03T06:15:04.546Z,0.52
2023-04-03T06:16:04.579Z,0.51
2023-04-03T06:17:04.619Z,0.51
2023-04-03T06:18:04.698Z,0.51
2023-04-03T06:19:04.649Z,0.53
2023-04-03T06:20:04.697Z,0.52
2023-04-03T06:21:04.687Z,0.51
2023-04-03T06:22:04.713Z,0.52
2023-04-03T06:23:06.164Z,0.51
2023-04-03T06:24:04.958Z,0.51
2023-04-03T06:25:04.974Z,0.51
2023-04-03T06:26:05.024Z,0.52
2023-04-03T06:27:04.970Z,0.52
2023-04-03T06:28:04.950Z,0.51
2023-04-03T06:29:07.916Z,0.51
2023-04-03T06:30:04.896Z,0.53
2023-04-03T06:31:04.934Z,0.52
2023-04-03T06:32:04.851Z,0.52
2023-04-03T06:33:04.910Z,0.50
2023-04-03T06:34:05.245Z,0.51
2023-04-03T06:35:04.779Z,0.51
2023-04-03T06:36:05.430Z,0.52
2023-04-03T06:37:04.745Z,0.51
2023-04-03T06:38:04.718Z,0.51
2023-04-03T06:39:04.694Z,0.51
2023-04-03T06:40:04.676Z,0.51
2023-04-03T06:41:04.661Z,0.50
2023-04-03T06:42:04.642Z,0.52
2023-04-03T06:43:04.639Z,0.50
2023-04-03T06:44:04.606Z,0.52
2023-04-03T06:45:04.582Z,0.51
2023-04-03T06:46:04.594Z,0.51
2023-04-03T06:47:04.537Z,0.51
2023-04-03T06:48:04.597Z,0.52
2023-04-03T06:49:04.517Z,0.51
2023-04-03T06:50:04.468Z,0.51
2023-04-03T06:51:04.441Z,0.51
2023-04-03T06:52:04.414Z,0.51
2023-04-03T06:53:04.399Z,0.51
2023-04-03T06:54:04.371Z,0.51
2023-04-03T06:55:04.392Z,0.51
2023-04-03T06:56:05.900Z,0.51
2023-04-03T06:57:04.369Z,0.51
2023-04-03T06:58:04.300Z,0.51
2023-04-03T06:59:04.273Z,0.51
2023-04-03T07:00:04.264Z,0.51
2023-04-03T07:01:04.237Z,0.51
2023-04-03T07:02:04.283Z,0.51
2023-04-03T07:03:04.228Z,0.51
2023-04-03T07:04:04.240Z,0.51
2023-04-03T07:05:04.153Z,0.51
2023-04-03T07:06:04.120Z,0.52
2023-04-03T07:07:04.111Z,0.52
2023-04-03T07:08:04.101Z,0.52
2023-04-03T07:09:04.096Z,0.52
2023-04-03T07:10:04.896Z,0.52
2023-04-03T07:11:04.030Z,0.52
2023-04-03T07:12:04.010Z,0.53
2023-04-03T07:13:03.992Z,0.52
2023-04-03T07:14:04.396Z,0.52
2023-04-03T07:15:03.935Z,0.51
2023-04-03T07:16:03.960Z,0.51
2023-04-03T07:17:03.905Z,0.51
2023-04-03T07:18:03.948Z,0.51
2023-04-03T07:19:03.843Z,0.52
2023-04-03T07:20:03.805Z,0.51
2023-04-03T07:21:03.794Z,0.50
2023-04-03T07:22:03.811Z,0.51
2023-04-03T07:23:04.306Z,0.51
2023-04-03T07:24:03.810Z,0.51
2023-04-03T07:25:06.394Z,0.52
2023-04-03T07:26:04.011Z,0.50
2023-04-03T07:27:04.032Z,0.51
2023-04-03T07:28:04.031Z,0.52
2023-04-03T07:29:04.014Z,0.52
2023-04-03T07:30:04.890Z,0.52
2023-04-03T07:31:03.954Z,0.52
2023-04-03T07:32:03.979Z,0.51
2023-04-03T07:33:03.960Z,0.51
2023-04-03T07:34:04.400Z,0.51
2023-04-03T07:35:04.043Z,0.52
2023-04-03T07:36:03.866Z,0.52
2023-04-03T07:37:03.833Z,0.51
2023-04-03T07:38:04.406Z,0.51
2023-04-03T07:39:03.882Z,0.51
2023-04-03T07:40:03.890Z,0.51
2023-04-03T07:41:03.891Z,0.51
2023-04-03T07:42:03.895Z,0.51
2023-04-03T07:43:06.896Z,0.51
2023-04-03T07:44:03.879Z,0.52
2023-04-03T07:45:03.837Z,0.51
2023-04-03T07:46:05.480Z,0.51
2023-04-03T07:47:03.784Z,0.51
2023-04-03T07:48:03.804Z,0.51
2023-04-03T07:49:03.731Z,0.52
2023-04-03T07:50:03.785Z,0.52
2023-04-03T07:51:03.716Z,0.51
2023-04-03T07:52:03.651Z,0.51
2023-04-03T07:53:03.618Z,0.51
2023-04-03T07:54:03.616Z,0.51
2023-04-03T07:55:03.555Z,0.52
2023-04-03T07:56:03.561Z,0.52
2023-04-03T07:57:05.519Z,0.50
2023-04-03T07:58:03.479Z,0.52
2023-04-03T07:59:04.424Z,0.52
2023-04-03T08:00:03.420Z,0.53
2023-04-03T08:01:03.406Z,0.51
2023-04-03T08:02:03.359Z,0.51
2023-04-03T08:03:03.411Z,0.52
2023-04-03T08:04:04.002Z,0.51
2023-04-03T08:05:03.326Z,0.50
2023-04-03T08:06:03.298Z,0.51
2023-04-03T08:07:03.234Z,0.51
2023-04-03T08:08:03.908Z,0.51
2023-04-03T08:09:03.376Z,0.51
2023-04-03T08:10:03.373Z,0.51
2023-04-03T08:11:03.399Z,0.52
2023-04-03T08:12:03.364Z,0.51
2023-04-03T08:13:03.994Z,0.51
2023-04-03T08:14:03.369Z,0.51
2023-04-03T08:15:03.514Z,0.51
2023-04-03T08:16:03.384Z,0.52
2023-04-03T08:17:03.447Z,0.52
2023-04-03T08:18:03.419Z,0.51
2023-04-03T08:19:07.127Z,0.52
2023-04-03T08:20:04.393Z,0.52
2023-04-03T08:21:03.378Z,0.52
2023-04-03T08:22:04.934Z,0.51
2023-04-03T08:23:03.372Z,0.52
2023-04-03T08:24:03.376Z,0.50
2023-04-03T08:25:03.368Z,0.51
2023-04-03T08:26:03.376Z,0.51
2023-04-03T08:27:03.417Z,0.51
2023-04-03T08:28:03.390Z,0.51
2023-04-03T08:29:03.377Z,0.51
2023-04-03T08:30:03.384Z,0.53
2023-04-03T08:31:03.403Z,0.50
2023-04-03T08:32:03.363Z,0.51
2023-04-03T08:33:03.429Z,0.51
2023-04-03T08:34:03.360Z,0.51
2023-04-03T08:35:03.353Z,0.51
2023-04-03T08:36:03.390Z,0.51
2023-04-03T08:37:03.350Z,0.50
2023-04-03T08:38:06.423Z,0.51
2023-04-03T08:39:03.329Z,0.51
2023-04-03T08:40:04.947Z,0.51
2023-04-03T08:41:03.321Z,0.51
2023-04-03T08:42:03.307Z,0.51
2023-04-03T08:43:03.292Z,0.51
2023-04-03T08:44:03.917Z,0.51
2023-04-03T08:45:03.339Z,0.51
2023-04-03T08:46:03.274Z,0.50
2023-04-03T08:47:03.228Z,0.50
2023-04-03T08:48:03.231Z,0.51
2023-04-03T08:49:03.231Z,0.52
2023-04-03T08:50:03.186Z,0.51
2023-04-03T08:51:03.859Z,0.51
2023-04-03T08:52:04.944Z,0.50
2023-04-03T08:53:03.140Z,0.51
2023-04-03T08:54:03.124Z,0.51
2023-04-03T08:55:03.956Z,0.51
2023-04-03T08:56:03.075Z,0.51
2023-04-03T08:57:03.109Z,0.51
2023-04-03T08:58:03.039Z,0.52
2023-04-03T08:59:03.019Z,0.51
2023-04-03T09:00:03.002Z,0.52
2023-04-03T09:01:03.059Z,0.51
2023-04-03T09:02:03.129Z,0.50
2023-04-03T09:03:02.976Z,0.51
2023-04-03T09:04:02.949Z,0.51
2023-04-03T09:05:02.883Z,0.52
2023-04-03T09:06:03.435Z,0.53
2023-04-03T09:07:02.853Z,0.52
2023-04-03T09:08:02.856Z,0.51
2023-04-03T09:09:02.813Z,0.51
2023-04-03T09:10:02.793Z,0.52
2023-04-03T09:11:05.423Z,0.52
2023-04-03T09:12:02.984Z,0.52
2023-04-03T09:13:02.988Z,0.52
2023-04-03T09:14:02.983Z,0.50
2023-04-03T09:15:02.966Z,0.52
2023-04-03T09:16:02.980Z,0.51
2023-04-03T09:17:06.014Z,0.51
2023-04-03T09:18:03.976Z,0.53
2023-04-03T09:19:02.900Z,0.53
2023-04-03T09:20:02.878Z,0.52
2023-04-03T09:21:02.854Z,0.53
2023-04-03T09:22:02.841Z,0.53
2023-04-03T09:23:02.808Z,0.51
2023-04-03T09:24:02.790Z,0.51
2023-04-03T09:25:02.768Z,0.52
2023-04-03T09:26:02.738Z,0.51
2023-04-03T09:27:04.503Z,0.52
2023-04-03T09:28:02.736Z,0.52
2023-04-03T09:29:02.692Z,0.52
2023-04-03T09:30:02.685Z,0.52
2023-04-03T09:31:04.506Z,0.52
2023-04-03T09:32:02.632Z,0.52
2023-04-03T09:33:02.758Z,0.52
2023-04-03T09:34:02.580Z,0.53
2023-04-03T09:35:09.616Z,0.53
2023-04-03T09:36:03.542Z,0.52
2023-04-03T09:37:03.445Z,0.53
2023-04-03T09:38:02.492Z,0.52
2023-04-03T09:39:02.456Z,0.53
2023-04-03T09:40:02.446Z,0.53
2023-04-03T09:41:02.413Z,0.53
2023-04-03T09:42:03.954Z,0.52
2023-04-03T09:43:02.386Z,0.55
2023-04-03T09:44:02.408Z,0.53
2023-04-03T09:45:02.345Z,0.53
2023-04-03T09:46:02.323Z,0.52
2023-04-03T09:47:02.397Z,0.52
2023-04-03T09:48:02.283Z,0.52
2023-04-03T09:50:02.237Z,0.52
2023-04-03T09:51:02.942Z,0.52
2023-04-03T09:52:02.208Z,0.52
2023-04-03T09:53:02.194Z,0.53
2023-04-03T09:54:02.164Z,0.52
2023-04-03T09:55:03.443Z,0.52
2023-04-03T09:56:02.135Z,0.52
2023-04-03T09:57:02.139Z,0.52
2023-04-03T09:58:03.936Z,0.53
2023-04-03T09:59:03.975Z,0.53
2023-04-03T10:00:02.057Z,0.53
2023-04-03T10:01:02.048Z,0.52
2023-04-03T10:02:02.036Z,0.53
2023-04-03T10:03:02.018Z,0.52
2023-04-03T10:04:02.002Z,0.52
2023-04-03T10:06:01.952Z,0.53
2023-04-03T10:07:02.447Z,0.52
2023-04-03T10:08:03.980Z,0.52
2023-04-03T10:09:01.925Z,0.52
2023-04-03T10:10:01.861Z,0.52
2023-04-03T10:11:01.847Z,0.52
2023-04-03T10:12:01.813Z,0.52
2023-04-03T10:13:01.806Z,0.52
2023-04-03T10:14:01.780Z,0.51
2023-04-03T10:15:01.769Z,0.52
2023-04-03T10:16:02.456Z,0.50
2023-04-03T10:17:02.058Z,0.50
2023-04-03T10:18:11.348Z,0.51
2023-04-03T10:19:02.992Z,0.50
2023-04-03T10:20:01.968Z,0.51
2023-04-03T10:21:02.043Z,0.51
2023-04-03T10:22:01.950Z,0.51
2023-04-03T10:23:06.463Z,0.51
2023-04-03T10:24:01.896Z,0.50
2023-04-03T10:25:01.882Z,0.51
2023-04-03T10:26:01.881Z,0.50
2023-04-03T10:27:01.829Z,0.51
2023-04-03T10:28:01.818Z,0.51
2023-04-03T10:29:01.801Z,0.51
2023-04-03T10:30:01.768Z,0.51
2023-04-03T10:31:01.846Z,0.52
2023-04-03T10:32:02.473Z,0.51
2023-04-03T10:33:01.739Z,0.52
2023-04-03T10:34:01.685Z,0.50
2023-04-03T10:35:04.975Z,0.52
2023-04-03T10:36:01.628Z,0.52
2023-04-03T10:37:01.692Z,0.51
2023-04-03T10:38:01.569Z,0.51
2023-04-03T10:39:01.545Z,0.51
2023-04-03T10:40:01.516Z,0.50
2023-04-03T10:41:01.492Z,0.51
2023-04-03T10:42:15.935Z,0.51
2023-04-03T10:43:02.490Z,0.51
2023-04-03T10:44:01.439Z,0.52
2023-04-03T10:45:02.988Z,0.51
2023-04-03T10:46:01.486Z,0.51
2023-04-03T10:47:01.370Z,0.52
2023-04-03T10:48:01.373Z,0.52
2023-04-03T10:49:01.321Z,0.52
2023-04-03T10:50:01.354Z,0.51
2023-04-03T10:51:01.281Z,0.52
2023-04-03T10:52:02.255Z,0.52
2023-04-03T10:53:02.068Z,0.52
2023-04-03T10:54:01.185Z,0.52
2023-04-03T10:55:01.181Z,0.51
2023-04-03T10:56:03.000Z,0.50
2023-04-03T10:57:11.055Z,0.52
2023-04-03T10:58:02.169Z,0.52
2023-04-03T10:59:01.073Z,0.52
2023-04-03T11:00:01.198Z,0.52
2023-04-03T11:01:01.025Z,0.52
2023-04-03T11:02:01.072Z,0.50
2023-04-03T11:03:01.098Z,0.52
2023-04-03T11:04:01.045Z,0.51
2023-04-03T11:05:00.920Z,0.51
2023-04-03T11:06:00.907Z,0.51
2023-04-03T11:07:00.897Z,0.51
2023-04-03T11:08:00.959Z,0.51
2023-04-03T11:09:01.048Z,0.51
2023-04-03T11:10:01.024Z,0.51
2023-04-03T11:11:01.048Z,0.51
2023-04-03T11:12:01.081Z,0.51
2023-04-03T11:13:01.115Z,0.51
2023-04-03T11:14:01.149Z,0.51
2023-04-03T11:15:01.952Z,0.51
2023-04-03T11:16:01.340Z,0.51
2023-04-03T11:17:01.307Z,0.51
2023-04-03T11:18:01.347Z,0.51
2023-04-03T11:19:01.365Z,0.50
2023-04-03T11:20:01.406Z,0.51
2023-04-03T11:21:01.431Z,0.51
2023-04-03T11:22:01.478Z,0.51
2023-04-03T11:23:01.498Z,0.52
2023-04-03T11:24:01.541Z,0.51
2023-04-03T11:25:01.666Z,0.52
2023-04-03T11:26:01.610Z,0.51
2023-04-03T11:27:01.654Z,0.51
2023-04-03T11:28:01.684Z,0.50
2023-04-03T11:29:01.725Z,0.51
2023-04-03T11:30:01.763Z,0.51
2023-04-03T11:31:01.935Z,0.50
2023-04-03T11:32:01.764Z,0.51
2023-04-03T11:33:01.814Z,0.53
2023-04-03T11:34:01.757Z,0.51
2023-04-03T11:35:01.759Z,0.51
2023-04-03T11:36:02.709Z,0.51
2023-04-03T11:37:01.796Z,0.52
2023-04-03T11:38:01.715Z,0.51
2023-04-03T11:39:01.679Z,0.52
2023-04-03T11:40:01.647Z,0.51
2023-04-03T11:41:01.705Z,0.51
2023-04-03T11:42:12.501Z,0.51
2023-04-03T11:43:02.562Z,0.51
2023-04-03T11:44:01.544Z,0.51
2023-04-03T11:45:01.504Z,0.51
2023-04-03T11:46:01.474Z,0.51
2023-04-03T11:47:01.509Z,0.51
2023-04-03T11:48:07.324Z,0.51
2023-04-03T11:49:02.383Z,0.51
2023-04-03T11:50:01.637Z,0.51
2023-04-03T11:51:01.314Z,0.51
2023-04-03T11:52:01.281Z,0.51
2023-04-03T11:53:01.281Z,0.51
2023-04-03T11:54:01.241Z,0.50
2023-04-03T11:55:01.211Z,0.50
2023-04-03T11:56:01.244Z,0.51
2023-04-03T11:57:01.279Z,0.51
2023-04-03T11:58:01.155Z,0.52
2023-04-03T11:59:01.151Z,0.53
2023-04-03T12:00:01.151Z,0.52
2023-04-03T12:01:01.182Z,0.53
2023-04-03T12:02:01.204Z,0.53
2023-04-03T12:03:01.378Z,0.51
2023-04-03T12:04:01.295Z,0.51
2023-04-03T12:05:01.278Z,0.52
2023-04-03T12:06:01.293Z,0.50
2023-04-03T12:07:01.310Z,0.52
2023-04-03T12:08:01.328Z,0.54
2023-04-03T12:09:01.346Z,0.52
2023-04-03T12:10:01.367Z,0.53
2023-04-03T12:11:01.379Z,0.54
2023-04-03T12:12:01.430Z,0.51
2023-04-03T12:13:01.501Z,0.51
2023-04-03T12:14:01.453Z,0.51
2023-04-03T12:15:01.443Z,0.54
2023-04-03T12:16:01.476Z,0.52
2023-04-03T12:17:01.494Z,0.52
2023-04-03T12:18:01.540Z,0.52
2023-04-03T12:19:01.540Z,0.52
2023-04-03T12:20:01.567Z,0.53
2023-04-03T12:21:01.573Z,0.53
2023-04-03T12:22:01.581Z,0.54
2023-04-03T12:23:01.600Z,0.54
2023-04-03T12:24:01.617Z,0.54
2023-04-03T12:25:01.630Z,0.54
2023-04-03T12:26:01.665Z,0.53
2023-04-03T12:27:01.693Z,0.51
2023-04-03T12:28:01.682Z,0.50
2023-04-03T12:29:01.790Z,0.53
2023-04-03T12:30:02.477Z,0.54
2023-04-03T12:31:01.739Z,0.52
2023-04-03T12:32:01.740Z,0.53
2023-04-03T12:33:12.038Z,0.53
2023-04-03T12:34:02.719Z,0.53
2023-04-03T12:35:01.689Z,0.53
2023-04-03T12:36:02.034Z,0.53
2023-04-03T12:37:01.616Z,0.51
2023-04-03T12:38:01.565Z,0.53
2023-04-03T12:39:01.532Z,0.54
2023-04-03T12:40:01.487Z,0.54
2023-04-03T12:41:01.440Z,0.54
2023-04-03T12:42:01.407Z,0.52
2023-04-03T12:43:04.030Z,0.52
2023-04-03T12:44:01.332Z,0.54
2023-04-03T12:45:01.383Z,0.52
2023-04-03T12:46:01.387Z,0.55
2023-04-03T12:47:01.282Z,0.54
2023-04-03T12:48:01.224Z,0.51
2023-04-03T12:49:01.135Z,0.54
2023-04-03T12:50:01.105Z,0.51
2023-04-03T12:51:01.050Z,0.51
2023-04-03T12:52:01.008Z,0.56
2023-04-03T12:53:00.978Z,0.52
2023-04-03T12:54:00.944Z,0.53
2023-04-03T12:55:00.886Z,0.52
2023-04-03T12:56:00.851Z,0.51
2023-04-03T12:57:00.837Z,0.52
2023-04-03T12:58:00.767Z,0.53
2023-04-03T12:59:00.729Z,0.51
2023-04-03T13:00:01.058Z,0.52
2023-04-03T13:01:00.744Z,0.52
2023-04-03T13:02:00.660Z,0.51
2023-04-03T13:03:00.594Z,0.51
2023-04-03T13:04:00.660Z,0.52
2023-04-03T13:05:00.489Z,0.51
2023-04-03T13:06:00.428Z,0.52
2023-04-03T13:07:00.390Z,0.51
2023-04-03T13:08:00.353Z,0.51
2023-04-03T13:09:00.292Z,0.51
2023-04-03T13:10:00.262Z,0.51
2023-04-03T13:11:00.192Z,0.51
2023-04-03T13:12:00.180Z,0.51
2023-04-03T13:13:00.123Z,0.50
2023-04-03T13:14:00.141Z,0.52
2023-04-03T13:15:00.033Z,0.51
2023-04-03T13:16:00.006Z,0.51
2023-04-03T13:17:00.139Z,0.52
2023-04-03T13:17:59.894Z,0.52
2023-04-03T13:18:59.824Z,0.51
2023-04-03T13:19:59.784Z,0.52
2023-04-03T13:20:59.740Z,0.51